Time;durP1;ratioP1;P1;durP2;ratioP2;P2;SDS_P1;SDS_P2;PMS_P1;PMS_P2;Temp;Humidity;BMP_temperature;BMP_pressure;BME280_temperature;BME280_humidity;BME280_pressure;Samples;Min_cycle;Max_cycle;Signal;HPM_P1;HPM_P2
2022/01/16 00:01:42;;;;;;;26.55;15.43;;;;;;;;;;5096431;28;20044;-69
2022/01/16 00:04:08;;;;;;;26.20;13.48;;;;;;;;;;5096679;28;20036;-68
2022/01/16 00:06:35;;;;;;;31.58;16.67;;;;;;;;;;5096962;28;20420;-68
2022/01/16 00:09:02;;;;;;;32.08;18.52;;;;;;;;;;5096098;28;20453;-69
2022/01/16 00:11:28;;;;;;;33.58;18.77;;;;;;;;;;5096639;28;20103;-68
2022/01/16 00:13:54;;;;;;;37.10;18.67;;;;;;;;;;5097259;28;20024;-68
2022/01/16 00:16:21;;;;;;;33.90;17.02;;;;;;;;;;5096127;28;20045;-68
2022/01/16 00:18:52;;;;;;;34.30;18.10;;;;;;;;;;5096624;28;20081;-69
2022/01/16 00:21:25;;;;;;;26.73;14.70;;;;;;;;;;5096722;28;20121;-69
2022/01/16 00:23:52;;;;;;;25.05;14.00;;;;;;;;;;5096122;28;20035;-68
2022/01/16 00:26:19;;;;;;;30.30;15.13;;;;;;;;;;5096657;28;20475;-69
2022/01/16 00:28:45;;;;;;;29.38;16.02;;;;;;;;;;5096607;28;20548;-69
2022/01/16 00:31:12;;;;;;;42.33;23.08;;;;;;;;;;5094685;28;20387;-68
2022/01/16 00:33:39;;;;;;;31.60;14.82;;;;;;;;;;5096264;28;20016;-69
2022/01/16 00:36:08;;;;;;;36.55;15.98;;;;;;;;;;5094620;28;20024;-70
2022/01/16 00:38:34;;;;;;;44.95;19.88;;;;;;;;;;5096241;28;20027;-70
2022/01/16 00:41:01;;;;;;;46.75;25.13;;;;;;;;;;5095949;28;20066;-68
2022/01/16 00:43:27;;;;;;;55.88;25.77;;;;;;;;;;5095650;28;20020;-71
2022/01/16 00:45:53;;;;;;;41.97;18.13;;;;;;;;;;5094727;28;20042;-69
2022/01/16 00:48:19;;;;;;;36.85;17.73;;;;;;;;;;5095954;28;20036;-70
2022/01/16 00:50:45;;;;;;;29.35;15.40;;;;;;;;;;5094329;28;20099;-69
2022/01/16 00:53:12;;;;;;;30.92;14.38;;;;;;;;;;5095932;28;20035;-69
2022/01/16 00:55:38;;;;;;;26.02;13.77;;;;;;;;;;5095755;28;20017;-69
2022/01/16 00:58:05;;;;;;;29.55;14.45;;;;;;;;;;5095318;28;20028;-68
2022/01/16 01:00:32;;;;;;;26.63;12.45;;;;;;;;;;5095890;28;20472;-69
2022/01/16 01:02:59;;;;;;;26.90;14.18;;;;;;;;;;5095725;28;20027;-69
2022/01/16 01:05:25;;;;;;;27.30;14.43;;;;;;;;;;5095254;28;20028;-69
2022/01/16 01:07:52;;;;;;;25.77;14.13;;;;;;;;;;5095384;28;20137;-68
2022/01/16 01:10:19;;;;;;;30.45;14.65;;;;;;;;;;5095870;28;20540;-70
2022/01/16 01:12:55;;;;;;;26.88;14.02;;;;;;;;;;5095292;28;20024;-71
2022/01/16 01:15:25;;;;;;;29.98;15.40;;;;;;;;;;5095881;28;20024;-69
2022/01/16 01:17:52;;;;;;;29.10;15.52;;;;;;;;;;5095373;28;20043;-70
2022/01/16 01:20:20;;;;;;;31.00;17.58;;;;;;;;;;5094942;28;20031;-68
2022/01/16 01:22:47;;;;;;;28.20;15.30;;;;;;;;;;5095269;28;20372;-69
2022/01/16 01:25:14;;;;;;;27.73;15.13;;;;;;;;;;5094860;28;20464;-68
2022/01/16 01:27:41;;;;;;;28.63;14.35;;;;;;;;;;5095101;28;20062;-68
2022/01/16 01:30:09;;;;;;;21.60;10.23;;;;;;;;;;5095264;28;20094;-68
2022/01/16 01:32:37;;;;;;;19.30;11.57;;;;;;;;;;5094746;28;20020;-68
2022/01/16 01:35:04;;;;;;;24.88;12.05;;;;;;;;;;5095031;28;20028;-69
2022/01/16 01:37:31;;;;;;;26.48;13.80;;;;;;;;;;5093704;28;20398;-69
2022/01/16 01:39:57;;;;;;;30.70;15.88;;;;;;;;;;5094494;28;20077;-69
2022/01/16 01:42:30;;;;;;;28.58;15.80;;;;;;;;;;5093582;28;20024;-69
2022/01/16 01:53:14;;;;;;;28.35;14.70;;;;;;;;;;5094190;28;20063;-69
2022/01/16 01:55:45;;;;;;;24.80;13.70;;;;;;;;;;5094877;28;20046;-69
2022/01/16 01:58:14;;;;;;;24.67;14.23;;;;;;;;;;5094762;28;20468;-69
2022/01/16 02:00:41;;;;;;;20.45;12.82;;;;;;;;;;5094119;28;20024;-69
2022/01/16 02:05:36;;;;;;;24.48;12.10;;;;;;;;;;5094713;28;20483;-69
2022/01/16 02:08:06;;;;;;;22.40;11.95;;;;;;;;;;5093719;28;20054;-69
2022/01/16 02:10:33;;;;;;;22.08;11.27;;;;;;;;;;5094372;28;20024;-69
2022/01/16 02:13:04;;;;;;;20.80;11.07;;;;;;;;;;5093086;28;20024;-68
2022/01/16 02:37:10;;;;;;;19.30;10.13;;;;;;;;;;5093490;28;20020;-68
2022/01/16 02:39:36;;;;;;;;;;;;;;;;;;5094412;28;20048;-69
2022/01/16 02:42:03;;;;;;;18.92;8.75;;;;;;;;;;5094149;28;20253;-68
2022/01/16 02:46:57;;;;;;;24.98;11.43;;;;;;;;;;5093773;28;20107;-68
2022/01/16 02:49:24;;;;;;;23.15;11.35;;;;;;;;;;5092346;28;20044;-68
2022/01/16 02:51:55;;;;;;;21.55;10.95;;;;;;;;;;5091956;28;20456;-69
2022/01/16 02:54:21;;;;;;;23.65;12.57;;;;;;;;;;5093947;28;20118;-69
2022/01/16 02:56:48;;;;;;;29.60;15.10;;;;;;;;;;5093210;28;20107;-68
2022/01/16 02:59:15;;;;;;;24.02;13.70;;;;;;;;;;5093604;28;20030;-68
2022/01/16 03:01:41;;;;;;;26.38;12.70;;;;;;;;;;5093580;28;20044;-69
2022/01/16 03:04:08;;;;;;;25.30;13.05;;;;;;;;;;5093125;28;20024;-69
2022/01/16 03:06:34;;;;;;;24.92;13.07;;;;;;;;;;5093784;28;20020;-69
2022/01/16 03:09:01;;;;;;;27.70;13.70;;;;;;;;;;5093245;28;20048;-68
2022/01/16 03:11:37;;;;;;;25.50;12.48;;;;;;;;;;5093479;28;20012;-68
2022/01/16 03:14:04;;;;;;;26.00;12.88;;;;;;;;;;5093504;28;20031;-68
2022/01/16 03:16:31;;;;;;;23.27;12.25;;;;;;;;;;5093501;28;20492;-68
2022/01/16 03:21:54;;;;;;;25.52;13.02;;;;;;;;;;5093654;28;20039;-68
2022/01/16 03:24:24;;;;;;;25.02;12.82;;;;;;;;;;5093324;28;20058;-68
2022/01/16 03:26:52;;;;;;;21.67;11.73;;;;;;;;;;5092855;28;20031;-68
2022/01/16 03:29:18;;;;;;;26.92;12.60;;;;;;;;;;5091957;28;20370;-68
2022/01/16 03:31:44;;;;;;;23.85;12.27;;;;;;;;;;5092937;28;20031;-69
2022/01/16 03:34:10;;;;;;;22.30;11.50;;;;;;;;;;5093462;28;20025;-69
2022/01/16 03:36:37;;;;;;;21.30;11.25;;;;;;;;;;5093336;28;20096;-69
2022/01/16 03:39:04;;;;;;;22.23;12.52;;;;;;;;;;5093083;28;20078;-69
2022/01/16 03:41:30;;;;;;;21.00;11.52;;;;;;;;;;5093192;28;20048;-69
2022/01/16 03:44:01;;;;;;;23.33;12.43;;;;;;;;;;5091890;28;20028;-68
2022/01/16 03:46:29;;;;;;;23.55;13.23;;;;;;;;;;5091558;28;20099;-68
2022/01/16 03:48:56;;;;;;;25.67;12.82;;;;;;;;;;5093032;28;20028;-69
2022/01/16 03:51:22;;;;;;;23.85;12.77;;;;;;;;;;5093092;28;20095;-69
2022/01/16 03:53:50;;;;;;;25.17;12.55;;;;;;;;;;5092695;28;20047;-69
2022/01/16 03:56:16;;;;;;;28.63;13.10;;;;;;;;;;5093366;28;20016;-69
2022/01/16 03:58:42;;;;;;;27.23;13.70;;;;;;;;;;5093113;28;20032;-69
2022/01/16 04:01:08;;;;;;;36.15;17.88;;;;;;;;;;5092640;28;20031;-69
2022/01/16 04:03:35;;;;;;;45.42;24.98;;;;;;;;;;5092994;28;20047;-69
2022/01/16 04:06:02;;;;;;;35.17;20.00;;;;;;;;;;5093025;28;20020;-69
2022/01/16 04:08:28;;;;;;;25.98;16.25;;;;;;;;;;5092343;28;20400;-69
2022/01/16 04:10:54;;;;;;;29.70;15.90;;;;;;;;;;5092999;28;20027;-69
2022/01/16 04:13:21;;;;;;;22.90;13.63;;;;;;;;;;5093265;28;20020;-69
2022/01/16 04:15:47;;;;;;;26.05;15.13;;;;;;;;;;5093600;28;20016;-68
2022/01/16 04:18:13;;;;;;;38.25;20.83;;;;;;;;;;5096528;28;20468;-69
2022/01/16 04:20:40;;;;;;;46.83;23.85;;;;;;;;;;5096812;28;20141;-68
2022/01/16 04:23:07;;;;;;;34.47;19.13;;;;;;;;;;5095998;28;20020;-68
2022/01/16 04:25:33;;;;;;;36.08;19.08;;;;;;;;;;5096378;28;20028;-69
2022/01/16 04:27:59;;;;;;;31.02;16.45;;;;;;;;;;5096049;28;20522;-68
2022/01/16 04:30:26;;;;;;;29.83;14.25;;;;;;;;;;5096294;28;20039;-69
2022/01/16 04:32:52;;;;;;;29.83;14.43;;;;;;;;;;5096428;28;20058;-69
2022/01/16 04:35:18;;;;;;;25.20;13.57;;;;;;;;;;5095768;28;20494;-68
2022/01/16 04:37:44;;;;;;;24.98;14.70;;;;;;;;;;5096312;28;20024;-68
2022/01/16 04:40:11;;;;;;;26.58;13.98;;;;;;;;;;5096157;28;20125;-68
2022/01/16 04:45:22;;;;;;;36.30;19.25;;;;;;;;;;5096293;28;20066;-69
2022/01/16 04:47:50;;;;;;;32.47;15.20;;;;;;;;;;5096193;28;20567;-68
2022/01/16 04:50:16;;;;;;;30.42;15.18;;;;;;;;;;5095581;28;20384;-69
2022/01/16 04:52:45;;;;;;;28.85;16.17;;;;;;;;;;5095962;28;20514;-69
2022/01/16 04:55:12;;;;;;;24.10;13.80;;;;;;;;;;5096081;28;20472;-69
2022/01/16 04:57:39;;;;;;;31.63;17.65;;;;;;;;;;5095352;28;20027;-68
2022/01/16 05:00:10;;;;;;;32.47;17.17;;;;;;;;;;5095750;28;20076;-68
2022/01/16 05:02:36;;;;;;;31.42;15.82;;;;;;;;;;5096056;28;20027;-68
2022/01/16 05:05:03;;;;;;;26.27;14.80;;;;;;;;;;5095277;28;20453;-69
2022/01/16 05:07:29;;;;;;;37.47;17.77;;;;;;;;;;5095381;28;20032;-68
2022/01/16 05:09:55;;;;;;;31.10;16.58;;;;;;;;;;5095619;28;20036;-68
2022/01/16 05:12:31;;;;;;;25.60;13.65;;;;;;;;;;5095125;28;20024;-69
2022/01/16 05:17:41;;;;;;;23.02;12.75;;;;;;;;;;5095076;28;20564;-69
2022/01/16 05:20:08;;;;;;;25.30;13.13;;;;;;;;;;5095320;28;20061;-68
2022/01/16 05:22:36;;;;;;;29.85;16.10;;;;;;;;;;5095278;28;20035;-68
2022/01/16 05:25:03;;;;;;;29.27;15.57;;;;;;;;;;5094822;28;20024;-68
2022/01/16 05:27:29;;;;;;;30.02;15.50;;;;;;;;;;5095608;28;20464;-69
2022/01/16 05:29:55;;;;;;;27.30;14.52;;;;;;;;;;5095130;28;20039;-68
2022/01/16 05:32:21;;;;;;;28.67;16.42;;;;;;;;;;5094725;28;20110;-68
2022/01/16 05:34:48;;;;;;;28.88;17.30;;;;;;;;;;5094985;28;20024;-68
2022/01/16 05:37:14;;;;;;;35.38;18.05;;;;;;;;;;5095041;28;20089;-68
2022/01/16 05:39:40;;;;;;;40.45;21.38;;;;;;;;;;5094588;28;20028;-69
2022/01/16 05:42:10;;;;;;;41.70;21.80;;;;;;;;;;5094870;28;20430;-68
2022/01/16 05:44:37;;;;;;;57.28;26.60;;;;;;;;;;5095115;28;20024;-68
2022/01/16 05:47:05;;;;;;;45.17;23.85;;;;;;;;;;5094369;28;20031;-69
2022/01/16 05:49:31;;;;;;;46.30;24.08;;;;;;;;;;5093376;28;20111;-68
2022/01/16 05:51:57;;;;;;;36.45;18.77;;;;;;;;;;5094787;28;20020;-68
2022/01/16 05:54:23;;;;;;;28.40;17.13;;;;;;;;;;5094300;28;20020;-68
2022/01/16 05:56:50;;;;;;;43.65;25.73;;;;;;;;;;5094854;28;20099;-69
2022/01/16 05:59:16;;;;;;;30.73;18.40;;;;;;;;;;5094606;28;20103;-68
2022/01/16 06:01:42;;;;;;;50.67;25.88;;;;;;;;;;5094096;28;20461;-69
2022/01/16 06:04:09;;;;;;;93.72;39.60;;;;;;;;;;5094550;28;20028;-69
2022/01/16 06:06:35;;;;;;;145.15;61.47;;;;;;;;;;5094291;28;20024;-69
2022/01/16 06:09:01;;;;;;;54.80;25.73;;;;;;;;;;5094288;28;20090;-69
2022/01/16 06:11:27;;;;;;;45.95;24.13;;;;;;;;;;5094318;28;20016;-68
2022/01/16 06:13:53;;;;;;;47.13;29.83;;;;;;;;;;5093938;28;20038;-68
2022/01/16 06:16:20;;;;;;;42.92;22.13;;;;;;;;;;5092996;28;20389;-68
2022/01/16 06:18:46;;;;;;;42.63;24.15;;;;;;;;;;5094215;28;20027;-68
2022/01/16 06:21:12;;;;;;;48.70;24.55;;;;;;;;;;5093744;28;20027;-70
2022/01/16 06:23:38;;;;;;;30.02;16.40;;;;;;;;;;5094112;28;20074;-68
2022/01/16 06:26:04;;;;;;;31.95;16.20;;;;;;;;;;5094136;28;20024;-69
2022/01/16 06:28:31;;;;;;;32.08;16.08;;;;;;;;;;5093809;28;20060;-68
2022/01/16 06:30:58;;;;;;;29.08;15.48;;;;;;;;;;5093964;28;20035;-68
2022/01/16 06:33:24;;;;;;;33.42;18.73;;;;;;;;;;5093928;28;20012;-68
2022/01/16 06:35:51;;;;;;;31.67;16.95;;;;;;;;;;5092299;28;20030;-68
2022/01/16 06:38:17;;;;;;;33.83;18.10;;;;;;;;;;5093445;28;20100;-68
2022/01/16 06:40:43;;;;;;;37.28;17.58;;;;;;;;;;5092608;28;20028;-68
2022/01/16 06:43:09;;;;;;;34.50;19.83;;;;;;;;;;5093520;28;20020;-68
2022/01/16 06:45:35;;;;;;;32.67;18.60;;;;;;;;;;5093734;28;20531;-68
2022/01/16 06:48:02;;;;;;;32.55;16.95;;;;;;;;;;5093692;28;20464;-68
2022/01/16 06:50:28;;;;;;;28.88;15.48;;;;;;;;;;5092017;28;20035;-68
2022/01/16 06:52:54;;;;;;;27.17;16.40;;;;;;;;;;5093922;28;20405;-70
2022/01/16 06:55:20;;;;;;;38.30;19.50;;;;;;;;;;5094006;28;20102;-68
2022/01/16 06:57:47;;;;;;;31.95;16.98;;;;;;;;;;5093296;28;20016;-70
2022/01/16 07:00:13;;;;;;;33.40;17.30;;;;;;;;;;5093737;28;20024;-69
2022/01/16 07:02:39;;;;;;;38.17;19.15;;;;;;;;;;5093636;28;20024;-69
2022/01/16 07:05:06;;;;;;;37.33;20.10;;;;;;;;;;5093245;28;20035;-69
2022/01/16 07:07:32;;;;;;;55.75;29.25;;;;;;;;;;5093254;28;20031;-70
2022/01/16 07:09:59;;;;;;;51.88;30.15;;;;;;;;;;5093461;28;20061;-70
2022/01/16 07:12:25;;;;;;;40.40;24.00;;;;;;;;;;5093678;28;20468;-69
2022/01/16 07:14:51;;;;;;;32.20;21.15;;;;;;;;;;5093673;28;20032;-69
2022/01/16 07:17:17;;;;;;;25.75;18.02;;;;;;;;;;5093049;28;20118;-67
2022/01/16 07:19:44;;;;;;;31.80;20.08;;;;;;;;;;5093418;28;20108;-67
2022/01/16 07:22:10;;;;;;;39.20;24.20;;;;;;;;;;5093347;28;20017;-67
2022/01/16 07:24:36;;;;;;;31.25;18.10;;;;;;;;;;5093122;28;20099;-67
2022/01/16 07:27:02;;;;;;;32.60;20.08;;;;;;;;;;5093276;28;20023;-67
2022/01/16 07:29:29;;;;;;;30.83;16.92;;;;;;;;;;5091929;28;20056;-67
2022/01/16 07:31:55;;;;;;;26.38;15.80;;;;;;;;;;5092920;28;20024;-67
2022/01/16 07:34:21;;;;;;;23.08;13.50;;;;;;;;;;5093336;28;20541;-67
2022/01/16 07:36:48;;;;;;;32.10;15.20;;;;;;;;;;5093388;28;20404;-68
2022/01/16 07:39:14;;;;;;;42.33;20.48;;;;;;;;;;5092724;28;20027;-68
2022/01/16 07:41:40;;;;;;;39.03;20.00;;;;;;;;;;5093218;28;20028;-68
2022/01/16 07:44:06;;;;;;;37.25;20.92;;;;;;;;;;5093180;28;20027;-68
2022/01/16 07:46:33;;;;;;;27.95;16.52;;;;;;;;;;5092836;28;20028;-68
2022/01/16 07:48:59;;;;;;;35.75;18.65;;;;;;;;;;5093268;28;20035;-68
2022/01/16 07:51:25;;;;;;;30.70;19.73;;;;;;;;;;5095527;28;20187;-68
2022/01/16 07:53:52;;;;;;;30.75;19.02;;;;;;;;;;5096603;28;20039;-69
2022/01/16 07:56:19;;;;;;;25.63;13.73;;;;;;;;;;5097033;28;20369;-68
2022/01/16 07:58:45;;;;;;;41.58;22.27;;;;;;;;;;5096830;28;20044;-68
2022/01/16 08:01:11;;;;;;;37.65;20.65;;;;;;;;;;5096524;28;20073;-68
2022/01/16 08:03:37;;;;;;;54.33;25.65;;;;;;;;;;5097047;28;20095;-69
2022/01/16 08:06:04;;;;;;;38.75;20.20;;;;;;;;;;5097083;28;20060;-69
2022/01/16 08:08:30;;;;;;;49.22;26.35;;;;;;;;;;5095241;28;20044;-68
2022/01/16 08:10:56;;;;;;;38.70;21.73;;;;;;;;;;5096622;28;20020;-68
2022/01/16 08:13:22;;;;;;;35.83;19.75;;;;;;;;;;5096259;28;20029;-69
2022/01/16 08:15:48;;;;;;;32.85;19.10;;;;;;;;;;5096843;28;20050;-69
2022/01/16 08:18:15;;;;;;;38.90;25.40;;;;;;;;;;5096608;28;20107;-68
2022/01/16 08:20:41;;;;;;;37.80;22.38;;;;;;;;;;5096120;28;20045;-69
2022/01/16 08:23:07;;;;;;;33.17;20.02;;;;;;;;;;5095064;28;20027;-69
2022/01/16 08:25:33;;;;;;;33.00;20.65;;;;;;;;;;5095147;28;20467;-69
2022/01/16 08:28:00;;;;;;;35.78;21.98;;;;;;;;;;5095930;28;20027;-69
2022/01/16 08:30:26;;;;;;;44.35;24.50;;;;;;;;;;5096527;28;20109;-69
2022/01/16 08:32:52;;;;;;;38.35;21.75;;;;;;;;;;5096261;28;20020;-68
2022/01/16 08:35:19;;;;;;;34.97;16.58;;;;;;;;;;5095794;28;20020;-68
2022/01/16 08:37:45;;;;;;;46.30;25.02;;;;;;;;;;5096101;28;20039;-69
2022/01/16 08:40:12;;;;;;;49.97;25.77;;;;;;;;;;5096132;28;20031;-69
2022/01/16 08:42:40;;;;;;;53.83;27.95;;;;;;;;;;5095665;28;20027;-69
2022/01/16 08:45:07;;;;;;;42.63;26.08;;;;;;;;;;5096241;28;20095;-69
2022/01/16 08:47:33;;;;;;;43.33;23.63;;;;;;;;;;5095950;28;20103;-68
2022/01/16 08:50:02;;;;;;;45.00;26.27;;;;;;;;;;5092258;28;20526;-68
2022/01/16 08:52:28;;;;;;;38.67;25.80;;;;;;;;;;5092318;28;20077;-68
2022/01/16 08:54:54;;;;;;;36.58;21.73;;;;;;;;;;5095384;28;20030;-69
2022/01/16 08:57:21;;;;;;;36.33;23.98;;;;;;;;;;5095562;28;20031;-69
2022/01/16 08:59:47;;;;;;;43.80;24.52;;;;;;;;;;5095695;28;20028;-69
2022/01/16 09:02:13;;;;;;;37.20;20.85;;;;;;;;;;5083463;28;20017;-70
2022/01/16 09:04:39;;;;;;;37.10;21.10;;;;;;;;;;5075078;28;20039;-70
2022/01/16 09:07:06;;;;;;;38.17;22.48;;;;;;;;;;5094836;28;20480;-70
2022/01/16 09:09:32;;;;;;;37.85;22.55;;;;;;;;;;5095011;28;20056;-69
2022/01/16 09:11:58;;;;;;;42.53;25.00;;;;;;;;;;5095552;28;20048;-69
2022/01/16 09:14:24;;;;;;;42.53;22.17;;;;;;;;;;5095387;28;20099;-69
2022/01/16 09:16:51;;;;;;;34.50;20.80;;;;;;;;;;5095175;28;20020;-69
2022/01/16 09:19:17;;;;;;;35.42;20.70;;;;;;;;;;5095322;28;20024;-69
2022/01/16 09:21:43;;;;;;;78.80;40.63;;;;;;;;;;5095554;28;20027;-69
2022/01/16 09:24:10;;;;;;;52.28;28.73;;;;;;;;;;5094890;28;20380;-69
2022/01/16 09:26:36;;;;;;;61.83;36.35;;;;;;;;;;5095079;28;20024;-69
2022/01/16 09:29:03;;;;;;;39.83;22.70;;;;;;;;;;5095022;28;20077;-69
2022/01/16 09:31:30;;;;;;;45.63;25.35;;;;;;;;;;5094361;28;20024;-69
2022/01/16 09:33:56;;;;;;;39.13;22.92;;;;;;;;;;5095298;28;20426;-69
2022/01/16 09:36:22;;;;;;;40.42;24.02;;;;;;;;;;5095369;28;20038;-69
2022/01/16 09:38:49;;;;;;;42.63;26.50;;;;;;;;;;5094599;28;20024;-69
2022/01/16 09:41:15;;;;;;;50.33;30.48;;;;;;;;;;5094925;28;20020;-69
2022/01/16 09:43:42;;;;;;;42.65;25.13;;;;;;;;;;5093622;28;20027;-69
2022/01/16 09:46:08;;;;;;;40.80;23.10;;;;;;;;;;5094443;28;20097;-69
2022/01/16 09:48:35;;;;;;;44.47;27.08;;;;;;;;;;5094659;28;20541;-69
2022/01/16 09:51:01;;;;;;;33.88;21.25;;;;;;;;;;5094743;28;20510;-69
2022/01/16 09:53:27;;;;;;;31.77;19.65;;;;;;;;;;5092987;28;20352;-69
2022/01/16 09:55:53;;;;;;;29.38;18.52;;;;;;;;;;5094584;28;20036;-69
2022/01/16 09:58:23;;;;;;;30.35;18.50;;;;;;;;;;5094674;28;20024;-69
2022/01/16 10:00:49;;;;;;;26.02;17.00;;;;;;;;;;5094273;28;20030;-69
2022/01/16 10:03:34;;;;;;;33.13;16.38;;;;;;;;;;5094638;28;20023;-70
2022/01/16 10:06:20;;;;;;;40.33;23.02;;;;;;;;;;5094126;28;20106;-70
2022/01/16 10:08:47;;;;;;;49.40;28.58;;;;;;;;;;5093018;28;20083;-69
2022/01/16 10:11:39;;;;;;;37.00;21.50;;;;;;;;;;5094363;28;20529;-69
2022/01/16 10:14:15;;;;;;;64.03;36.15;;;;;;;;;;5093475;28;20077;-69
2022/01/16 10:16:42;;;;;;;47.65;29.23;;;;;;;;;;5094273;28;20425;-69
2022/01/16 10:19:38;;;;;;;29.05;17.13;;;;;;;;;;5094296;28;20058;-69
2022/01/16 10:22:08;;;;;;;28.85;16.85;;;;;;;;;;5089396;28;20119;-69
2022/01/16 10:24:34;;;;;;;27.20;15.63;;;;;;;;;;5094206;28;20024;-69
2022/01/16 10:27:11;;;;;;;24.10;15.23;;;;;;;;;;5092522;28;20024;-70
2022/01/16 10:29:45;;;;;;;25.70;16.63;;;;;;;;;;5094184;28;20028;-70
2022/01/16 10:32:11;;;;;;;31.00;17.33;;;;;;;;;;5094190;28;20035;-70
2022/01/16 10:34:38;;;;;;;28.13;16.15;;;;;;;;;;5092386;28;20396;-70
2022/01/16 10:37:33;;;;;;;21.48;13.57;;;;;;;;;;5094277;28;20019;-70
2022/01/16 10:40:01;;;;;;;19.08;12.15;;;;;;;;;;5089157;28;20043;-70
2022/01/16 10:42:28;;;;;;;25.00;15.07;;;;;;;;;;5093637;28;20024;-71
2022/01/16 10:45:11;;;;;;;23.88;16.10;;;;;;;;;;5093810;28;20028;-70
2022/01/16 10:47:39;;;;;;;21.23;13.50;;;;;;;;;;5093902;28;20484;-70
2022/01/16 10:50:08;;;;;;;22.75;13.50;;;;;;;;;;5093091;28;20039;-71
2022/01/16 10:52:45;;;;;;;20.40;12.98;;;;;;;;;;5093049;28;20492;-71
2022/01/16 10:55:12;;;;;;;24.10;14.15;;;;;;;;;;5093403;28;20028;-70
2022/01/16 10:59:24;;;;;;;31.30;17.60;;;;;;;;;;5132004;27;20812;-71
2022/01/16 11:01:50;;;;;;;;;;;;;;;;;;5110929;28;20024;-71
2022/01/16 11:05:43;;;;;;;20.73;12.10;;;;;;;;;;5111398;27;20396;-71
2022/01/16 11:08:19;;;;;;;18.73;10.68;;;;;;;;;;5110798;28;20081;-70
2022/01/16 11:10:47;;;;;;;17.60;9.85;;;;;;;;;;5111024;28;20077;-71
2022/01/16 11:15:06;;;;;;;18.88;12.18;;;;;;;;;;5111242;27;20888;-70
2022/01/16 11:18:04;;;;;;;21.67;13.35;;;;;;;;;;5110806;27;20494;-71
2022/01/16 11:28:27;;;;;;;18.15;10.10;;;;;;;;;;5111750;27;20740;-71
2022/01/16 11:30:54;;;;;;;15.80;10.63;;;;;;;;;;5110822;28;20111;-69
2022/01/16 11:33:21;;;;;;;20.65;12.63;;;;;;;;;;5110958;28;20024;-70
2022/01/16 11:35:53;;;;;;;18.35;10.63;;;;;;;;;;5110915;28;20357;-70
2022/01/16 11:38:20;;;;;;;16.50;11.35;;;;;;;;;;5109070;28;20016;-70
2022/01/16 11:48:38;;;;;;;29.58;19.25;;;;;;;;;;5111707;27;20400;-70
2022/01/16 11:51:05;;;;;;;27.75;18.88;;;;;;;;;;5110883;28;20028;-71
2022/01/16 11:53:50;;;;;;;17.67;11.65;;;;;;;;;;5111252;28;20070;-71
2022/01/16 11:58:09;;;;;;;15.38;9.50;;;;;;;;;;5111654;27;20458;-71
2022/01/16 12:01:49;;;;;;;17.77;11.18;;;;;;;;;;5111986;27;20458;-70
2022/01/16 12:04:30;;;;;;;19.88;12.38;;;;;;;;;;5111535;28;20028;-70
2022/01/16 12:07:22;;;;;;;19.90;12.57;;;;;;;;;;5111003;28;20020;-69
2022/01/16 12:12:00;;;;;;;23.25;13.57;;;;;;;;;;5111364;27;20422;-70
2022/01/16 12:15:16;;;;;;;26.70;16.35;;;;;;;;;;5111211;27;20546;-70
2022/01/16 12:17:44;;;;;;;17.38;11.32;;;;;;;;;;5111409;28;20375;-71
2022/01/16 12:20:10;;;;;;;20.73;12.30;;;;;;;;;;5111063;28;20024;-68
2022/01/16 12:24:35;;;;;;;18.77;12.88;;;;;;;;;;5111361;27;20405;-71
2022/01/16 12:28:26;;;;;;;21.42;13.82;;;;;;;;;;5110888;27;20115;-70
2022/01/16 12:32:02;;;;;;;16.63;10.10;;;;;;;;;;5111936;27;20397;-71
2022/01/16 12:34:43;;;;;;;24.83;15.63;;;;;;;;;;5110768;28;20028;-69
2022/01/16 12:37:28;;;;;;;17.52;9.57;;;;;;;;;;5111298;28;20439;-69
2022/01/16 12:44:15;;;;;;;21.48;12.32;;;;;;;;;;5111751;27;20452;-71
2022/01/16 12:49:48;;;;;;;32.63;15.77;;;;;;;;;;5111564;27;20434;-71
2022/01/16 12:53:12;;;;;;;16.52;8.93;;;;;;;;;;5111695;27;20836;-70
2022/01/16 12:55:39;;;;;;;19.25;11.32;;;;;;;;;;5110771;28;20054;-69
2022/01/16 12:58:18;;;;;;;28.58;18.15;;;;;;;;;;5111413;28;20023;-69
2022/01/16 13:03:32;;;;;;;17.15;9.98;;;;;;;;;;5131269;27;20116;-69
2022/01/16 13:06:17;;;;;;;17.23;10.75;;;;;;;;;;5111234;28;20028;-69
2022/01/16 13:11:51;;;;;;;14.57;9.43;;;;;;;;;;5091918;27;20487;-69
2022/01/16 13:14:19;;;;;;;23.08;14.27;;;;;;;;;;5091023;28;20435;-69
2022/01/16 13:17:08;;;;;;;24.08;13.93;;;;;;;;;;5111134;27;20422;-70
2022/01/16 13:19:56;;;;;;;17.77;11.05;;;;;;;;;;5109956;28;20024;-69
2022/01/16 13:22:26;;;;;;;14.82;9.93;;;;;;;;;;5111465;28;20020;-70
2022/01/16 13:24:53;;;;;;;16.83;10.25;;;;;;;;;;5111119;28;20510;-70
2022/01/16 13:28:10;;;;;;;12.60;8.32;;;;;;;;;;5112093;27;20869;-70
2022/01/16 13:32:47;;;;;;;14.90;6.70;;;;;;;;;;5111645;27;20512;-71
2022/01/16 13:35:29;;;;;;;13.95;8.05;;;;;;;;;;5109988;28;20468;-71
2022/01/16 13:38:05;;;;;;;13.63;8.85;;;;;;;;;;5109585;28;20024;-70
2022/01/16 13:40:32;;;;;;;16.00;9.40;;;;;;;;;;5111017;28;20024;-70
2022/01/16 13:46:43;;;;;;;13.15;7.03;;;;;;;;;;5112123;27;20439;-71
2022/01/16 13:49:09;;;;;;;19.90;11.00;;;;;;;;;;5111368;28;20506;-71
2022/01/16 13:51:56;;;;;;;16.20;9.38;;;;;;;;;;5131675;27;20503;-71
2022/01/16 13:54:28;;;;;;;36.50;20.42;;;;;;;;;;5111448;28;20387;-69
2022/01/16 13:56:56;;;;;;;63.83;37.28;;;;;;;;;;5111342;28;20452;-70
2022/01/16 14:01:14;;;;;;;26.85;16.10;;;;;;;;;;5111472;27;20438;-71
2022/01/16 14:03:56;;;;;;;34.60;19.55;;;;;;;;;;5110000;28;20434;-71
2022/01/16 14:06:24;;;;;;;18.90;12.30;;;;;;;;;;5110929;28;20420;-71
2022/01/16 14:09:51;;;;;;;17.65;10.85;;;;;;;;;;5111159;27;20419;-71
2022/01/16 14:16:33;;;;;;;22.35;14.60;;;;;;;;;;5111921;27;20397;-71
2022/01/16 14:24:04;;;;;;;21.10;12.95;;;;;;;;;;5111191;28;20082;-69
2022/01/16 14:27:57;;;;;;;24.02;13.55;;;;;;;;;;5070327;28;20968;-70
2022/01/16 14:30:23;;;;;;;26.67;16.23;;;;;;;;;;5070690;28;20029;-70
2022/01/16 14:32:50;;;;;;;49.38;27.63;;;;;;;;;;5070267;28;20048;-69
2022/01/16 14:35:16;;;;;;;28.80;19.85;;;;;;;;;;5070796;28;20029;-69
2022/01/16 14:37:42;;;;;;;24.13;15.57;;;;;;;;;;5070721;28;20029;-69
2022/01/16 14:40:09;;;;;;;23.35;13.32;;;;;;;;;;5070067;28;20497;-69
2022/01/16 14:42:37;;;;;;;29.58;17.85;;;;;;;;;;5070324;28;20028;-69
2022/01/16 14:45:11;;;;;;;48.13;26.92;;;;;;;;;;5111460;27;20401;-70
2022/01/16 14:47:39;;;;;;;45.53;30.95;;;;;;;;;;5110886;28;20028;-70
2022/01/16 14:53:26;;;;;;;33.17;24.15;;;;;;;;;;5111859;27;20392;-70
2022/01/16 14:57:47;;;;;;;50.42;32.03;;;;;;;;;;5111310;27;20462;-70
2022/01/16 15:00:14;;;;;;;74.10;48.95;;;;;;;;;;5111298;28;20437;-70
2022/01/16 15:02:41;;;;;;;57.08;37.03;;;;;;;;;;5109325;28;20031;-70
2022/01/16 15:05:10;;;;;;;66.57;43.33;;;;;;;;;;5111051;28;20392;-70
2022/01/16 15:07:36;;;;;;;59.47;37.53;;;;;;;;;;5111430;28;20024;-70
2022/01/16 15:13:42;;;;;;;53.03;35.30;;;;;;;;;;5112033;27;20441;-70
2022/01/16 15:17:45;;;;;;;69.13;46.13;;;;;;;;;;5111683;27;20400;-70
2022/01/16 15:20:18;;;;;;;86.22;50.65;;;;;;;;;;5111423;28;20027;-70
2022/01/16 15:22:48;;;;;;;64.10;42.05;;;;;;;;;;5111077;28;20031;-70
2022/01/16 15:25:14;;;;;;;80.60;47.65;;;;;;;;;;5111489;28;20038;-69
2022/01/16 15:27:41;;;;;;;65.47;35.85;;;;;;;;;;5111075;28;20106;-70
2022/01/16 15:30:12;;;;;;;68.03;42.30;;;;;;;;;;5110686;28;20027;-69
2022/01/16 15:32:38;;;;;;;90.05;57.85;;;;;;;;;;5111266;28;20043;-70
2022/01/16 15:35:04;;;;;;;90.97;59.22;;;;;;;;;;5110999;28;20024;-70
2022/01/16 15:37:31;;;;;;;86.50;55.30;;;;;;;;;;5109253;28;20057;-70
2022/01/16 15:39:57;;;;;;;106.30;67.18;;;;;;;;;;5110990;28;20030;-70
2022/01/16 15:42:24;;;;;;;105.90;69.05;;;;;;;;;;5110913;28;20031;-70
2022/01/16 15:44:50;;;;;;;114.78;72.72;;;;;;;;;;5110282;28;20487;-69
2022/01/16 15:47:16;;;;;;;153.98;95.28;;;;;;;;;;5110673;28;20102;-69
2022/01/16 15:49:43;;;;;;;178.35;105.45;;;;;;;;;;5109527;28;20089;-69
2022/01/16 15:52:09;;;;;;;152.32;92.15;;;;;;;;;;5110213;28;20012;-70
2022/01/16 15:54:36;;;;;;;262.15;131.65;;;;;;;;;;5110633;28;20039;-70
2022/01/16 15:57:03;;;;;;;242.68;126.90;;;;;;;;;;5110811;28;20112;-69
2022/01/16 15:59:30;;;;;;;171.65;98.88;;;;;;;;;;5110434;28;20016;-69
2022/01/16 16:01:56;;;;;;;135.32;80.35;;;;;;;;;;5110482;28;20357;-70
2022/01/16 16:04:22;;;;;;;142.98;77.63;;;;;;;;;;5110468;28;20081;-70
2022/01/16 16:06:48;;;;;;;157.65;83.82;;;;;;;;;;5110398;28;20020;-70
2022/01/16 16:09:15;;;;;;;127.07;69.93;;;;;;;;;;5110350;28;20557;-69
2022/01/16 16:11:41;;;;;;;112.70;65.75;;;;;;;;;;5109904;28;20028;-69
2022/01/16 16:14:07;;;;;;;109.22;61.90;;;;;;;;;;5110555;28;20028;-70
2022/01/16 16:16:34;;;;;;;123.80;69.95;;;;;;;;;;5109924;28;20058;-69
2022/01/16 16:19:00;;;;;;;198.90;111.05;;;;;;;;;;5109835;28;20428;-69
2022/01/16 16:21:27;;;;;;;194.77;110.70;;;;;;;;;;5110338;28;20099;-70
2022/01/16 16:23:53;;;;;;;154.85;87.20;;;;;;;;;;5110245;28;20024;-69